Boston, Massachusetts
Traffic Map
Current Weather Conditions
Boston, Massachusetts
Scattered Clouds
Scattered Clouds
72°
Feels Like: 72°
Wind Chill: 72° Ceiling: Unl
Heat Index: 72° Visibility: 10mi
Dew Point: 59° Wind: 12mph
Humidity: 64% Direction: 90° (E)
Pressure: 29.99in Gusts: 0mph
Raw Report DataKBOS 301654Z 09010KT 10SM FEW038 SCT250 22/15 A2999 RMK AO2 SLP153 T02220150
Traffic Incident Summary
Active as of:
Severity:
Category:
InformationThere was an issue retrieving the traffic information for this location. Please try a different location or try again shortly.
Advertisements
Track Severe Weather on mobile